createdAt,value
2018-07-20T00:02:17.926Z,99928.78
2018-07-20T00:04:43.934Z,99923.11
2018-07-20T00:07:09.920Z,99922.45
2018-07-20T00:09:35.907Z,99918.05
2018-07-20T00:12:01.949Z,99920.20
2018-07-20T00:14:28.003Z,99923.93
2018-07-20T00:16:54.001Z,99922.06
2018-07-20T00:19:20.019Z,99922.45
2018-07-20T00:21:46.964Z,99915.05
2018-07-20T00:24:12.944Z,99919.75
2018-07-20T00:26:39.021Z,99927.33
2018-07-20T00:29:07.143Z,99925.13
2018-07-20T00:31:33.218Z,99919.20
2018-07-20T00:34:00.165Z,99923.45
2018-07-20T00:36:26.203Z,99912.53
2018-07-20T00:38:53.182Z,99916.02
2018-07-20T00:41:19.256Z,99913.12
2018-07-20T00:43:45.270Z,99916.42
2018-07-20T00:46:11.271Z,99919.68
2018-07-20T00:48:37.269Z,99912.42
2018-07-20T00:51:03.313Z,99916.64
2018-07-20T00:53:29.333Z,99911.63
2018-07-20T00:55:55.398Z,99911.66
2018-07-20T00:58:21.431Z,99908.69
2018-07-20T01:00:48.584Z,99910.81
2018-07-20T01:03:15.829Z,99907.79
2018-07-20T01:05:41.842Z,99910.09
2018-07-20T01:08:07.924Z,99900.84
2018-07-20T01:10:33.963Z,99910.17
2018-07-20T01:13:00.033Z,99903.88
2018-07-20T01:15:26.064Z,99898.59
2018-07-20T01:17:52.063Z,99903.47
2018-07-20T01:20:18.086Z,99904.22
2018-07-20T01:22:44.451Z,99907.70
2018-07-20T01:25:10.497Z,99910.06
2018-07-20T01:27:36.468Z,99907.36
2018-07-20T01:30:02.442Z,99900.55
2018-07-20T01:32:28.487Z,99893.95
2018-07-20T01:34:54.457Z,99892.23
2018-07-20T01:37:20.474Z,99894.81
2018-07-20T01:39:46.470Z,99889.28
2018-07-20T01:42:12.444Z,99889.22
2018-07-20T01:44:38.477Z,99885.59
2018-07-20T01:47:04.435Z,99893.17
2018-07-20T01:49:30.480Z,99899.11
2018-07-20T01:51:56.459Z,99897.09
2018-07-20T01:54:22.468Z,99895.12
2018-07-20T01:56:48.845Z,99893.09
2018-07-20T01:59:15.005Z,99895.05
2018-07-20T02:01:41.047Z,99898.68
2018-07-20T02:04:07.227Z,99895.84
2018-07-20T02:06:33.273Z,99899.19
2018-07-20T02:08:59.326Z,99896.09
2018-07-20T02:11:25.356Z,99898.97
2018-07-20T02:13:51.429Z,99895.63
2018-07-20T02:16:17.488Z,99899.01
2018-07-20T02:18:43.625Z,99900.52
2018-07-20T02:21:09.665Z,99897.37
2018-07-20T02:23:38.613Z,99892.72
2018-07-20T02:26:04.657Z,99886.35
2018-07-20T02:28:30.776Z,99895.16
2018-07-20T02:30:56.782Z,99887.02
2018-07-20T02:33:22.872Z,99884.40
2018-07-20T02:35:48.926Z,99883.12
2018-07-20T02:38:15.018Z,99878.47
2018-07-20T02:40:41.837Z,99881.39
2018-07-20T02:43:07.848Z,99879.91
2018-07-20T02:45:34.590Z,99876.23
2018-07-20T02:48:00.679Z,99878.98
2018-07-20T02:50:26.809Z,99883.77
2018-07-20T02:52:52.980Z,99880.16
2018-07-20T02:55:20.255Z,99878.87
2018-07-20T02:57:46.325Z,99882.03
2018-07-20T03:00:12.409Z,99878.83
2018-07-20T03:02:38.488Z,99877.66
2018-07-20T03:05:04.520Z,99882.00
2018-07-20T03:07:30.523Z,99877.82
2018-07-20T03:09:56.670Z,99876.78
2018-07-20T03:12:22.717Z,99869.48
2018-07-20T03:14:48.800Z,99868.25
2018-07-20T03:17:14.826Z,99872.65
2018-07-20T03:19:40.954Z,99870.89
2018-07-20T03:22:07.024Z,99873.07
2018-07-20T03:24:33.108Z,99864.82
2018-07-20T03:26:59.263Z,99862.85
2018-07-20T03:29:25.340Z,99860.18
2018-07-20T03:31:52.322Z,99864.06
2018-07-20T03:34:19.717Z,99859.44
2018-07-20T03:36:46.710Z,99861.67
2018-07-20T03:39:12.852Z,99860.95
2018-07-20T03:41:38.999Z,99859.19
2018-07-20T03:44:06.180Z,99865.96
2018-07-20T03:46:32.289Z,99863.77
2018-07-20T03:48:58.360Z,99858.70
2018-07-20T03:51:24.516Z,99860.01
2018-07-20T03:53:51.118Z,99861.17
2018-07-20T03:56:18.063Z,99864.96
2018-07-20T03:58:44.306Z,99861.64
2018-07-20T04:01:10.436Z,99858.86
2018-07-20T04:03:37.449Z,99855.66
2018-07-20T04:06:03.568Z,99851.45
2018-07-20T04:08:30.840Z,99861.02
2018-07-20T04:10:56.947Z,99854.73
2018-07-20T04:13:23.011Z,99851.39
2018-07-20T04:15:49.088Z,99848.67
2018-07-20T04:18:15.224Z,99844.72
2018-07-20T04:20:41.365Z,99838.28
2018-07-20T04:23:07.545Z,99840.91
2018-07-20T04:25:33.567Z,99839.55
2018-07-20T04:27:59.628Z,99850.17
2018-07-20T04:30:25.830Z,99855.38
2018-07-20T04:32:51.999Z,99846.89
2018-07-20T04:35:18.101Z,99852.69
2018-07-20T04:37:44.878Z,99855.44
2018-07-20T04:40:10.955Z,99853.34
2018-07-20T04:42:37.084Z,99851.00
2018-07-20T04:45:03.128Z,99855.14
2018-07-20T04:47:29.196Z,99852.67
2018-07-20T04:49:55.872Z,99853.55
2018-07-20T04:52:21.971Z,99855.41
2018-07-20T04:54:51.869Z,99863.87
2018-07-20T04:57:18.004Z,99856.34
2018-07-20T04:59:44.094Z,99862.94
2018-07-20T05:02:10.231Z,99868.05
2018-07-20T05:04:36.352Z,99866.97
2018-07-20T05:07:02.489Z,99858.48
2018-07-20T05:09:28.560Z,99856.92
2018-07-20T05:11:54.595Z,99859.91
2018-07-20T05:14:21.543Z,99857.56
2018-07-20T05:16:47.641Z,99851.72
2018-07-20T05:19:13.763Z,99852.86
2018-07-20T05:21:39.868Z,99845.12
2018-07-20T05:24:05.956Z,99856.73
2018-07-20T05:26:32.568Z,99855.95
2018-07-20T05:28:58.681Z,99861.27
2018-07-20T05:31:25.539Z,99854.17
2018-07-20T05:33:52.629Z,99851.38
2018-07-20T05:36:18.752Z,99858.58
2018-07-20T05:38:44.862Z,99856.29
2018-07-20T05:41:10.938Z,99862.27
2018-07-20T05:43:39.886Z,99856.31
2018-07-20T05:46:06.796Z,99859.16
2018-07-20T05:48:32.770Z,99860.21
2018-07-20T05:50:58.879Z,99862.66
2018-07-20T05:53:24.930Z,99862.91
2018-07-20T05:55:50.854Z,99862.19
2018-07-20T05:58:16.941Z,99852.62
2018-07-20T06:00:43.271Z,99858.64
2018-07-20T06:03:09.241Z,99864.97
2018-07-20T06:05:35.435Z,99860.27
2018-07-20T06:08:01.508Z,99870.04
2018-07-20T06:10:27.644Z,99873.05
2018-07-20T06:12:53.974Z,99870.45
2018-07-20T06:15:20.120Z,99874.41
2018-07-20T06:17:46.143Z,99870.59
2018-07-20T06:20:12.125Z,99864.37
2018-07-20T06:22:38.137Z,99866.11
2018-07-20T06:25:04.116Z,99865.95
2018-07-20T06:27:30.230Z,99868.30
2018-07-20T06:29:56.309Z,99867.35
2018-07-20T06:32:22.880Z,99870.19
2018-07-20T06:34:48.870Z,99866.40
2018-07-20T06:37:15.943Z,99868.02
2018-07-20T06:39:41.981Z,99869.80
2018-07-20T06:42:09.065Z,99862.17
2018-07-20T06:44:35.052Z,99870.07
2018-07-20T06:47:01.032Z,99872.72
2018-07-20T06:49:27.086Z,99873.86
2018-07-20T06:51:53.067Z,99871.16
2018-07-20T06:54:19.129Z,99873.34
2018-07-20T06:56:45.169Z,99880.48
2018-07-20T06:59:11.202Z,99871.45
2018-07-20T07:01:37.228Z,99869.11
2018-07-20T07:04:03.258Z,99872.53
2018-07-20T07:06:29.273Z,99876.31
2018-07-20T07:08:55.259Z,99877.31
2018-07-20T07:11:21.271Z,99875.41
2018-07-20T07:13:47.344Z,99880.67
2018-07-20T07:16:13.299Z,99886.94
2018-07-20T07:18:39.471Z,99894.19
2018-07-20T07:21:05.590Z,99886.34
2018-07-20T07:23:31.635Z,99890.78
2018-07-20T07:25:57.660Z,99893.45
2018-07-20T07:28:23.620Z,99893.83
2018-07-20T07:30:49.598Z,99890.53
2018-07-20T07:33:15.672Z,99895.20
2018-07-20T07:35:41.665Z,99891.59
2018-07-20T07:38:07.649Z,99887.23
2018-07-20T07:40:33.705Z,99884.81
2018-07-20T07:42:59.678Z,99888.15
2018-07-20T07:45:25.625Z,99880.41
2018-07-20T07:47:51.622Z,99888.92
2018-07-20T07:50:17.598Z,99891.45
2018-07-20T07:52:43.613Z,99887.84
2018-07-20T07:55:09.685Z,99879.86
2018-07-20T07:57:35.716Z,99884.84
2018-07-20T08:00:02.964Z,99875.45
2018-07-20T08:02:29.618Z,99875.87
2018-07-20T08:04:55.696Z,99871.45
2018-07-20T08:07:21.766Z,99873.30
2018-07-20T08:09:47.813Z,99869.86
2018-07-20T08:12:13.799Z,99870.18
2018-07-20T08:14:39.892Z,99872.48
2018-07-20T08:17:09.708Z,99870.38
2018-07-20T08:19:35.780Z,99870.22
2018-07-20T08:22:01.951Z,99868.01
2018-07-20T08:24:27.944Z,99871.70
2018-07-20T08:26:54.032Z,99873.35
2018-07-20T08:29:20.159Z,99866.70
2018-07-20T08:31:46.159Z,99871.16
2018-07-20T08:34:12.225Z,99871.87
2018-07-20T08:36:38.243Z,99871.06
2018-07-20T08:39:04.251Z,99875.59
2018-07-20T08:41:30.250Z,99864.62
2018-07-20T08:43:56.329Z,99867.16
2018-07-20T08:46:22.337Z,99865.33
2018-07-20T08:48:48.349Z,99859.45
2018-07-20T08:51:14.357Z,99851.05
2018-07-20T08:53:40.439Z,99857.71
2018-07-20T08:56:06.617Z,99851.93
2018-07-20T08:58:32.688Z,99857.61
2018-07-20T09:00:59.656Z,99849.30
2018-07-20T09:03:26.657Z,99853.27
2018-07-20T09:05:52.774Z,99854.33
2018-07-20T09:08:18.865Z,99849.21
2018-07-20T09:10:44.876Z,99845.82
2018-07-20T09:13:11.544Z,99845.03
2018-07-20T09:15:37.604Z,99838.91
2018-07-20T09:18:03.647Z,99840.84
2018-07-20T09:20:29.764Z,99841.87
2018-07-20T09:22:55.842Z,99836.29
2018-07-20T09:25:21.944Z,99834.70
2018-07-20T09:27:48.050Z,99835.21
2018-07-20T09:30:14.295Z,99834.19
2018-07-20T09:32:40.328Z,99825.31
2018-07-20T09:35:06.473Z,99829.66
2018-07-20T09:37:32.521Z,99828.86
2018-07-20T09:39:58.544Z,99827.05
2018-07-20T09:42:24.566Z,99818.80
2018-07-20T09:44:50.587Z,99815.45
2018-07-20T09:47:16.919Z,99825.70
2018-07-20T09:49:43.885Z,99820.69
2018-07-20T09:52:10.030Z,99816.91
2018-07-20T09:54:36.053Z,99819.52
2018-07-20T09:57:02.077Z,99814.36
2018-07-20T09:59:28.104Z,99817.79
2018-07-20T10:01:54.076Z,99811.62
2018-07-20T10:04:20.120Z,99806.85
2018-07-20T10:06:46.163Z,99808.73
2018-07-20T10:09:12.137Z,99807.75
2018-07-20T10:11:38.123Z,99804.66
2018-07-20T10:14:04.194Z,99803.67
2018-07-20T10:16:30.347Z,99798.38
2018-07-20T10:18:56.370Z,99798.22
2018-07-20T10:21:23.559Z,99793.77
2018-07-20T10:23:49.508Z,99790.08
2018-07-20T10:26:15.537Z,99795.37
2018-07-20T10:28:41.535Z,99790.48
2018-07-20T10:31:07.514Z,99789.02
2018-07-20T10:33:33.450Z,99788.55
2018-07-20T10:35:59.423Z,99781.64
2018-07-20T10:38:25.413Z,99781.03
2018-07-20T10:40:51.404Z,99776.29
2018-07-20T10:43:17.433Z,99779.71
2018-07-20T10:45:43.440Z,99771.42
2018-07-20T10:48:09.404Z,99768.38
2018-07-20T10:50:35.544Z,99768.28
2018-07-20T10:53:01.507Z,99772.45
2018-07-20T10:55:27.510Z,99762.23
2018-07-20T10:57:53.519Z,99751.97
2018-07-20T11:00:19.493Z,99759.49
2018-07-20T11:02:45.473Z,99750.37
2018-07-20T11:05:11.527Z,99751.83
2018-07-20T11:07:37.519Z,99755.98
2018-07-20T11:10:03.508Z,99747.63
2018-07-20T11:12:29.548Z,99744.31
2018-07-20T11:14:55.571Z,99746.51
2018-07-20T11:17:21.555Z,99739.55
2018-07-20T11:19:47.551Z,99743.45
2018-07-20T11:22:13.549Z,99741.59
2018-07-20T11:24:39.517Z,99744.55
2018-07-20T11:27:05.476Z,99739.38
2018-07-20T11:29:31.502Z,99735.25
2018-07-20T11:31:57.483Z,99737.64
2018-07-20T11:34:23.456Z,99735.45
2018-07-20T11:36:49.433Z,99724.42
2018-07-20T11:39:16.300Z,99721.42
2018-07-20T11:41:42.300Z,99726.59
2018-07-20T11:44:08.258Z,99722.08
2018-07-20T11:46:34.257Z,99717.11
2018-07-20T11:49:00.241Z,99716.27
2018-07-20T11:51:26.211Z,99716.86
2018-07-20T11:53:52.179Z,99718.31
2018-07-20T11:56:18.158Z,99706.08
2018-07-20T11:58:44.385Z,99707.55
2018-07-20T12:01:10.408Z,99709.16
2018-07-20T12:03:36.370Z,99710.71
2018-07-20T12:06:02.355Z,99701.27
2018-07-20T12:08:28.325Z,99696.63
2018-07-20T12:10:54.300Z,99698.17
2018-07-20T12:13:20.346Z,99697.06
2018-07-20T12:15:46.344Z,99694.08
2018-07-20T12:18:12.355Z,99691.14
2018-07-20T12:20:38.753Z,99697.50
2018-07-20T12:23:04.721Z,99696.20
2018-07-20T12:25:30.712Z,99696.89
2018-07-20T12:27:56.673Z,99695.63
2018-07-20T12:30:22.639Z,99698.96
2018-07-20T12:32:48.593Z,99690.61
2018-07-20T12:35:14.520Z,99683.81
2018-07-20T12:37:40.484Z,99685.11
2018-07-20T12:40:06.411Z,99672.05
2018-07-20T12:42:32.393Z,99673.43
2018-07-20T12:44:58.344Z,99673.36
2018-07-20T12:47:24.285Z,99673.50
2018-07-20T12:49:50.226Z,99665.55
2018-07-20T12:52:16.176Z,99669.28
2018-07-20T12:54:42.955Z,99669.98
2018-07-20T12:57:08.942Z,99661.48
2018-07-20T12:59:34.972Z,99662.83
2018-07-20T13:02:00.993Z,99668.58
2018-07-20T13:04:27.001Z,99662.31
2018-07-20T13:06:52.975Z,99657.84
2018-07-20T13:09:18.996Z,99654.31
2018-07-20T13:11:45.092Z,99657.84
2018-07-20T13:14:11.034Z,99645.52
2018-07-20T13:16:36.969Z,99646.64
2018-07-20T13:19:03.590Z,99645.63
2018-07-20T13:21:29.621Z,99640.05
2018-07-20T13:23:55.636Z,99637.25
2018-07-20T13:26:21.650Z,99630.48
2018-07-20T13:28:47.610Z,99628.80
2018-07-20T13:31:13.630Z,99624.92
2018-07-20T13:33:39.616Z,99621.98
2018-07-20T13:36:05.613Z,99629.69
2018-07-20T13:38:31.662Z,99616.44
2018-07-20T13:40:57.634Z,99622.75
2018-07-20T13:43:23.589Z,99613.31
2018-07-20T13:45:49.552Z,99615.68
2018-07-20T13:48:15.527Z,99606.82
2018-07-20T13:50:41.496Z,99607.57
2018-07-20T13:53:07.521Z,99602.41
2018-07-20T13:55:33.544Z,99592.35
2018-07-20T13:57:59.543Z,99593.29
2018-07-20T14:00:25.485Z,99588.39
2018-07-20T14:02:51.653Z,99591.91
2018-07-20T14:05:17.670Z,99592.00
2018-07-20T14:07:43.712Z,99578.42
2018-07-20T14:10:09.719Z,99576.69
2018-07-20T14:12:35.738Z,99574.20
2018-07-20T14:15:01.777Z,99569.58
2018-07-20T14:17:27.785Z,99567.47
2018-07-20T14:19:55.205Z,99556.34
2018-07-20T14:22:21.345Z,99564.66
2018-07-20T14:24:47.346Z,99557.63
2018-07-20T14:27:13.372Z,99569.10
2018-07-20T14:29:39.402Z,99553.44
2018-07-20T14:32:05.415Z,99556.91
2018-07-20T14:34:31.423Z,99553.05
2018-07-20T14:36:57.445Z,99558.95
2018-07-20T14:39:23.425Z,99556.34
2018-07-20T14:41:49.522Z,99548.59
2018-07-20T14:44:15.576Z,99551.00
2018-07-20T14:46:41.576Z,99546.29
2018-07-20T14:49:07.621Z,99551.55
2018-07-20T14:51:33.637Z,99545.45
2018-07-20T14:53:59.713Z,99541.36
2018-07-20T14:56:25.777Z,99539.00
2018-07-20T14:58:51.900Z,99543.08
2018-07-20T15:01:17.912Z,99532.00
2018-07-20T15:03:44.065Z,99530.53
2018-07-20T15:06:10.279Z,99537.05
2018-07-20T15:08:37.061Z,99533.27
2018-07-20T15:11:03.110Z,99529.12
2018-07-20T15:13:29.192Z,99536.14
2018-07-20T15:15:55.303Z,99528.87
2018-07-20T15:18:22.125Z,99524.80
2018-07-20T15:20:52.041Z,99514.20
2018-07-20T15:23:19.084Z,99516.48
2018-07-20T15:25:46.129Z,99514.87
2018-07-20T15:28:12.233Z,99515.59
2018-07-20T15:30:38.272Z,99509.61
2018-07-20T15:33:04.666Z,99505.08
2018-07-20T15:35:31.595Z,99507.48
2018-07-20T15:37:57.677Z,99507.39
2018-07-20T15:40:24.554Z,99506.37
2018-07-20T15:42:50.699Z,99507.55
2018-07-20T15:45:16.771Z,99498.80
2018-07-20T15:47:44.772Z,99496.32
2018-07-20T15:50:10.816Z,99490.67
2018-07-20T15:55:03.253Z,99495.97
2018-07-20T15:57:29.385Z,99489.41
2018-07-20T15:59:55.470Z,99497.91
2018-07-20T16:02:21.504Z,99486.29
2018-07-20T16:04:47.522Z,99484.90
2018-07-20T16:07:14.387Z,99491.92
2018-07-20T16:09:40.437Z,99487.94
2018-07-20T16:12:06.546Z,99484.52
2018-07-20T16:14:32.584Z,99488.21
2018-07-20T16:16:58.730Z,99478.88
2018-07-20T16:19:24.725Z,99476.44
2018-07-20T16:21:50.758Z,99480.73
2018-07-20T16:24:16.899Z,99476.50
2018-07-20T16:26:43.002Z,99474.48
2018-07-20T16:29:10.016Z,99476.16
2018-07-20T16:31:36.021Z,99472.92
2018-07-20T16:34:02.139Z,99468.31
2018-07-20T16:36:28.159Z,99479.81
2018-07-20T16:38:54.210Z,99473.00
2018-07-20T16:41:20.359Z,99476.20
2018-07-20T16:43:46.406Z,99465.88
2018-07-20T16:46:12.670Z,99469.30
2018-07-20T16:48:38.672Z,99464.14
2018-07-20T16:51:04.679Z,99469.39
2018-07-20T16:53:30.714Z,99460.66
2018-07-20T16:55:56.747Z,99458.98
2018-07-20T16:58:22.782Z,99461.77
2018-07-20T17:00:48.694Z,99459.45
2018-07-20T17:03:14.686Z,99462.69
2018-07-20T17:05:41.667Z,99463.42
2018-07-20T17:08:07.652Z,99453.84
2018-07-20T17:10:34.381Z,99457.98
2018-07-20T17:13:00.389Z,99461.01
2018-07-20T17:15:26.402Z,99460.77
2018-07-20T17:17:53.238Z,99460.02
2018-07-20T17:20:19.208Z,99461.76
2018-07-20T17:22:45.214Z,99463.25
2018-07-20T17:25:11.209Z,99468.23
2018-07-20T17:27:37.301Z,99467.94
2018-07-20T17:30:03.356Z,99468.32
2018-07-20T17:32:29.376Z,99464.72
2018-07-20T17:34:56.218Z,99469.69
2018-07-20T17:37:22.340Z,99457.81
2018-07-20T17:39:48.873Z,99462.52
2018-07-20T17:42:14.839Z,99463.14
2018-07-20T17:44:40.776Z,99466.01
2018-07-20T17:47:06.734Z,99461.96
2018-07-20T17:49:32.770Z,99466.73
2018-07-20T17:51:58.742Z,99467.58
2018-07-20T17:54:24.748Z,99462.69
2018-07-20T17:56:50.729Z,99464.43
2018-07-20T17:59:16.817Z,99464.43
2018-07-20T18:01:42.814Z,99469.69
2018-07-20T18:04:08.784Z,99465.91
2018-07-20T18:06:34.789Z,99469.87
2018-07-20T18:09:00.785Z,99464.16
2018-07-20T18:11:26.757Z,99462.03
2018-07-20T18:16:25.053Z,99469.87
2018-07-20T18:18:51.071Z,99470.32
2018-07-20T18:21:17.058Z,99464.98
2018-07-20T18:23:43.033Z,99477.50
2018-07-20T18:26:09.012Z,99478.97
2018-07-20T18:28:35.126Z,99482.58
2018-07-20T18:31:02.217Z,99480.92
2018-07-20T18:33:28.429Z,99479.42
2018-07-20T18:35:54.413Z,99479.78
2018-07-20T18:38:20.372Z,99487.17
2018-07-20T18:40:46.497Z,99489.39
2018-07-20T18:43:12.506Z,99487.89
2018-07-20T18:45:38.861Z,99491.40
2018-07-20T18:48:04.982Z,99488.07
2018-07-20T18:50:31.867Z,99492.88
2018-07-20T18:52:57.901Z,99483.63
2018-07-20T18:55:24.048Z,99485.31
2018-07-20T18:57:50.150Z,99486.78
2018-07-20T19:00:16.151Z,99490.65
2018-07-20T19:02:42.143Z,99490.80
2018-07-20T19:05:08.175Z,99496.86
2018-07-20T19:07:34.148Z,99491.24
2018-07-20T19:10:00.139Z,99496.58
2018-07-20T19:12:26.118Z,99499.70
2018-07-20T19:14:52.085Z,99502.38
2018-07-20T19:17:18.088Z,99505.30
2018-07-20T19:19:44.064Z,99507.80
2018-07-20T19:22:10.053Z,99505.66
2018-07-20T19:24:36.013Z,99507.30
2018-07-20T19:27:02.044Z,99499.83
2018-07-20T19:29:27.977Z,99500.27
2018-07-20T19:31:53.941Z,99500.72
2018-07-20T19:34:19.931Z,99498.57
2018-07-20T19:41:52.273Z,99498.93
2018-07-20T19:44:18.236Z,99495.80
2018-07-20T19:46:44.209Z,99498.79
2018-07-20T19:49:10.170Z,99495.82
2018-07-20T19:51:36.268Z,99495.98
2018-07-20T19:54:02.276Z,99503.70
2018-07-20T19:56:28.216Z,99505.03
2018-07-20T19:58:54.302Z,99506.25
2018-07-20T20:01:20.213Z,99506.78
2018-07-20T20:03:46.185Z,99507.27
2018-07-20T20:06:12.304Z,99501.95
2018-07-20T20:08:38.270Z,99512.25
2018-07-20T20:11:04.274Z,99511.35
2018-07-20T20:13:30.279Z,99509.61
2018-07-20T20:15:56.272Z,99512.19
2018-07-20T20:18:22.237Z,99517.42
2018-07-20T20:20:48.216Z,99521.80
2018-07-20T20:28:21.362Z,99516.55
2018-07-20T20:30:47.313Z,99517.05
2018-07-20T20:33:13.253Z,99523.63
2018-07-20T20:35:39.213Z,99527.16
2018-07-20T20:38:05.178Z,99520.89
2018-07-20T20:40:31.144Z,99524.55
2018-07-20T20:42:57.128Z,99523.13
2018-07-20T20:45:23.100Z,99525.58
2018-07-20T20:47:49.052Z,99523.02
2018-07-20T20:50:15.033Z,99529.41
2018-07-20T20:52:41.002Z,99525.88
2018-07-20T20:55:06.981Z,99529.81
2018-07-20T20:57:32.975Z,99530.56
2018-07-20T20:59:58.970Z,99532.27
2018-07-20T21:02:24.913Z,99533.53
2018-07-20T21:04:50.863Z,99530.56
2018-07-20T21:07:16.820Z,99525.91
2018-07-20T21:09:42.776Z,99527.67
2018-07-20T21:12:08.854Z,99527.36
2018-07-20T21:14:34.739Z,99529.67
2018-07-20T21:17:00.681Z,99523.75
2018-07-20T21:19:26.663Z,99524.14
2018-07-20T21:21:52.604Z,99515.55
2018-07-20T21:24:18.557Z,99516.55
2018-07-20T21:26:44.508Z,99516.44
2018-07-20T21:29:10.457Z,99513.06
2018-07-20T21:31:36.400Z,99516.78
2018-07-20T21:34:02.374Z,99516.00
2018-07-20T21:36:28.356Z,99523.77
2018-07-20T21:38:54.316Z,99519.19
2018-07-20T21:41:20.251Z,99511.19
2018-07-20T21:43:46.214Z,99515.95
2018-07-20T21:46:12.185Z,99514.83
2018-07-20T21:48:38.145Z,99516.41
2018-07-20T21:51:04.106Z,99513.75
2018-07-20T21:53:30.053Z,99515.03
2018-07-20T21:55:56.014Z,99509.91
2018-07-20T21:58:21.981Z,99506.23
2018-07-20T22:00:47.949Z,99504.57
2018-07-20T22:03:13.900Z,99514.62
2018-07-20T22:05:39.866Z,99514.91
2018-07-20T22:08:05.811Z,99517.61
2018-07-20T22:10:31.808Z,99518.22
2018-07-20T22:12:57.772Z,99515.12
2018-07-20T22:15:23.751Z,99522.66
2018-07-20T22:17:49.721Z,99521.79
2018-07-20T22:20:15.678Z,99519.39
2018-07-20T22:22:41.639Z,99525.80
2018-07-20T22:25:07.600Z,99526.77
2018-07-20T22:27:33.577Z,99529.22
2018-07-20T22:29:59.592Z,99525.22
2018-07-20T22:32:25.567Z,99518.16
2018-07-20T22:34:51.504Z,99517.66
2018-07-20T22:37:17.464Z,99523.47
2018-07-20T22:39:43.422Z,99518.72
2018-07-20T22:42:09.369Z,99519.45
2018-07-20T22:44:35.382Z,99513.57
2018-07-20T22:47:01.351Z,99509.00
2018-07-20T22:49:27.296Z,99511.63
2018-07-20T22:51:53.258Z,99509.32
2018-07-20T22:54:19.193Z,99510.43
2018-07-20T22:56:45.177Z,99504.13
2018-07-20T22:59:11.136Z,99498.71
2018-07-20T23:01:37.094Z,99498.22
2018-07-20T23:04:03.027Z,99500.24
2018-07-20T23:06:28.983Z,99500.66
2018-07-20T23:08:54.943Z,99503.30
2018-07-20T23:11:20.891Z,99502.61
2018-07-20T23:13:46.858Z,99511.28
2018-07-20T23:16:12.832Z,99514.02
2018-07-20T23:18:38.796Z,99515.01
2018-07-20T23:21:04.857Z,99518.52
2018-07-20T23:23:30.791Z,99517.59
2018-07-20T23:25:56.777Z,99512.13
2018-07-20T23:28:22.763Z,99516.66
2018-07-20T23:30:48.721Z,99518.17
2018-07-20T23:33:14.724Z,99513.59
2018-07-20T23:35:40.691Z,99507.61
2018-07-20T23:38:06.653Z,99509.03
2018-07-20T23:40:32.631Z,99505.92
2018-07-20T23:42:58.647Z,99510.41
2018-07-20T23:45:24.598Z,99518.05
2018-07-20T23:47:50.548Z,99509.45
2018-07-20T23:50:16.485Z,99508.24
2018-07-20T23:52:42.477Z,99508.05
2018-07-20T23:55:08.421Z,99513.91
2018-07-20T23:57:34.352Z,99507.35
